Time,TemperatureF,DewpointF,PressureIn,WindDirection,WindDirectionDegrees,WindSpeedMPH,WindSpeedGustMPH,Humidity,HourlyPrecipIn,Conditions,Clouds,dailyrainin,SolarRadiationWatts/m^2,SoftwareType,DateUTC
2013-04-27 00:02:00,33.0,27.0,-100.00,NW,321,2.0,3.0,77,0.00,,,0.00,0.000000,,2013-04-27 06:02:00,
2013-04-27 00:22:00,32.0,26.0,-100.00,NW,312,1.0,3.0,79,0.00,,,0.00,0.000000,,2013-04-27 06:22:00,
2013-04-27 00:32:00,32.0,26.0,-100.00,NW,312,1.0,3.0,79,0.00,,,0.00,0.000000,,2013-04-27 06:32:00,
2013-04-27 00:42:00,32.0,26.0,-100.00,NW,312,1.0,3.0,79,0.00,,,0.00,0.000000,,2013-04-27 06:42:00,
2013-04-27 00:52:00,32.0,26.0,-100.00,NW,312,1.0,3.0,79,0.00,,,0.00,0.000000,,2013-04-27 06:52:00,
2013-04-27 01:01:00,32.0,26.0,-100.00,NW,312,1.0,3.0,79,0.00,,,0.00,0.000000,,2013-04-27 07:01:00,
2013-04-27 01:22:00,31.0,26.0,-100.00,NW,318,1.0,3.0,81,0.00,,,0.00,0.000000,,2013-04-27 07:22:00,
2013-04-27 01:32:00,31.0,26.0,-100.00,NW,318,1.0,3.0,81,0.00,,,0.00,0.000000,,2013-04-27 07:32:00,
2013-04-27 01:42:00,31.0,26.0,-100.00,NW,318,1.0,3.0,81,0.00,,,0.00,0.000000,,2013-04-27 07:42:00,
2013-04-27 01:52:00,31.0,26.0,-100.00,NW,318,1.0,3.0,81,0.00,,,0.00,0.000000,,2013-04-27 07:52:00,
2013-04-27 02:01:00,31.0,26.0,-100.00,NW,318,1.0,3.0,81,0.00,,,0.00,0.000000,,2013-04-27 08:01:00,
2013-04-27 02:22:00,31.0,24.0,-100.00,NW,309,2.0,3.0,76,0.00,,,0.00,0.000000,,2013-04-27 08:22:00,
2013-04-27 02:33:00,31.0,24.0,-100.00,NW,309,2.0,3.0,76,0.00,,,0.00,0.000000,,2013-04-27 08:33:00,
2013-04-27 02:42:00,31.0,24.0,-100.00,NW,309,2.0,3.0,76,0.00,,,0.00,0.000000,,2013-04-27 08:42:00,
2013-04-27 02:52:00,31.0,24.0,-100.00,NW,309,2.0,3.0,76,0.00,,,0.00,0.000000,,2013-04-27 08:52:00,
2013-04-27 03:01:00,31.0,24.0,-100.00,NW,309,2.0,3.0,76,0.00,,,0.00,0.000000,,2013-04-27 09:01:00,
2013-04-27 03:33:00,31.0,24.0,-100.00,NW,307,2.0,3.0,75,0.00,,,0.00,0.000000,,2013-04-27 09:33:00,
2013-04-27 03:43:00,31.0,24.0,-100.00,NW,307,2.0,3.0,75,0.00,,,0.00,0.000000,,2013-04-27 09:43:00,
2013-04-27 03:53:00,31.0,24.0,-100.00,NW,307,2.0,3.0,75,0.00,,,0.00,0.000000,,2013-04-27 09:53:00,
2013-04-27 04:02:00,31.0,24.0,-100.00,NW,307,2.0,3.0,75,0.00,,,0.00,0.000000,,2013-04-27 10:02:00,
2013-04-27 04:33:00,34.0,22.0,-100.00,NW,307,3.0,4.0,62,0.00,,,0.00,0.000000,,2013-04-27 10:33:00,
2013-04-27 04:42:00,34.0,22.0,-100.00,NW,307,3.0,4.0,62,0.00,,,0.00,0.000000,,2013-04-27 10:42:00,
2013-04-27 04:52:00,34.0,22.0,-100.00,NW,307,3.0,4.0,62,0.00,,,0.00,0.000000,,2013-04-27 10:52:00,
2013-04-27 05:02:00,34.0,22.0,-100.00,NW,307,3.0,4.0,62,0.00,,,0.00,0.000000,,2013-04-27 11:02:00,
2013-04-27 05:32:00,33.0,22.0,-100.00,NW,324,2.0,6.0,64,0.00,,,0.00,0.000000,,2013-04-27 11:32:00,
2013-04-27 05:42:00,33.0,22.0,-100.00,NW,324,2.0,6.0,64,0.00,,,0.00,0.000000,,2013-04-27 11:42:00,
2013-04-27 05:52:00,33.0,22.0,-100.00,NW,324,2.0,6.0,64,0.00,,,0.00,0.000000,,2013-04-27 11:52:00,
2013-04-27 06:01:00,33.0,22.0,-100.00,NW,324,2.0,6.0,64,0.00,,,0.00,0.000000,,2013-04-27 12:01:00,
2013-04-27 06:32:00,33.0,22.0,-100.00,NNW,329,2.0,4.0,63,0.00,,,0.00,0.000000,,2013-04-27 12:32:00,
2013-04-27 06:42:00,33.0,22.0,-100.00,NNW,329,2.0,4.0,63,0.00,,,0.00,0.000000,,2013-04-27 12:42:00,
2013-04-27 06:52:00,33.0,22.0,-100.00,NNW,329,2.0,4.0,63,0.00,,,0.00,0.000000,,2013-04-27 12:52:00,
2013-04-27 07:02:00,33.0,22.0,-100.00,NNW,329,2.0,4.0,63,0.00,,,0.00,0.000000,,2013-04-27 13:02:00,
2013-04-27 07:32:00,36.0,23.0,-100.00,North,356,3.0,4.0,59,0.00,,,0.00,21.000000,,2013-04-27 13:32:00,
2013-04-27 07:42:00,36.0,23.0,-100.00,North,356,3.0,4.0,59,0.00,,,0.00,21.000000,,2013-04-27 13:42:00,
2013-04-27 07:52:00,36.0,23.0,-100.00,North,356,3.0,4.0,59,0.00,,,0.00,21.000000,,2013-04-27 13:52:00,
2013-04-27 08:02:00,36.0,23.0,-100.00,North,356,3.0,4.0,59,0.00,,,0.00,21.000000,,2013-04-27 14:02:00,
2013-04-27 08:32:00,50.0,24.0,-100.00,SSW,213,4.0,8.0,36,0.00,,,0.00,258.000000,,2013-04-27 14:32:00,
2013-04-27 08:42:00,50.0,24.0,-100.00,SSW,213,4.0,8.0,36,0.00,,,0.00,258.000000,,2013-04-27 14:42:00,
2013-04-27 08:52:00,50.0,24.0,-100.00,SSW,213,4.0,8.0,36,0.00,,,0.00,258.000000,,2013-04-27 14:52:00,
2013-04-27 09:01:00,50.0,24.0,-100.00,SSW,213,4.0,8.0,36,0.00,,,0.00,258.000000,,2013-04-27 15:01:00,
2013-04-27 09:33:00,55.0,19.0,-100.00,SSW,193,5.0,10.0,24,0.00,,,0.00,548.000000,,2013-04-27 15:33:00,
2013-04-27 09:43:00,55.0,19.0,-100.00,SSW,193,5.0,10.0,24,0.00,,,0.00,548.000000,,2013-04-27 15:43:00,
2013-04-27 09:53:00,55.0,19.0,-100.00,SSW,193,5.0,10.0,24,0.00,,,0.00,548.000000,,2013-04-27 15:53:00,
2013-04-27 10:03:00,55.0,19.0,-100.00,SSW,193,5.0,10.0,24,0.00,,,0.00,548.000000,,2013-04-27 16:03:00,
2013-04-27 10:23:00,57.0,13.0,-100.00,West,264,4.0,12.0,17,0.00,,,0.00,758.000000,,2013-04-27 16:23:00,
2013-04-27 10:33:00,57.0,13.0,-100.00,West,264,4.0,12.0,17,0.00,,,0.00,758.000000,,2013-04-27 16:33:00,
2013-04-27 10:42:00,57.0,13.0,-100.00,West,264,4.0,12.0,17,0.00,,,0.00,758.000000,,2013-04-27 16:42:00,
2013-04-27 10:53:00,57.0,13.0,-100.00,West,264,4.0,12.0,17,0.00,,,0.00,758.000000,,2013-04-27 16:53:00,
2013-04-27 11:02:00,57.0,13.0,-100.00,West,264,4.0,12.0,17,0.00,,,0.00,758.000000,,2013-04-27 17:02:00,
2013-04-27 11:32:00,58.0,17.0,-100.00,ESE,109,6.0,13.0,20,0.00,,,0.00,616.000000,,2013-04-27 17:32:00,
2013-04-27 11:42:00,58.0,17.0,-100.00,ESE,109,6.0,13.0,20,0.00,,,0.00,616.000000,,2013-04-27 17:42:00,
2013-04-27 11:53:00,58.0,17.0,-100.00,ESE,109,6.0,13.0,20,0.00,,,0.00,616.000000,,2013-04-27 17:53:00,
2013-04-27 12:02:00,58.0,17.0,-100.00,ESE,109,6.0,13.0,20,0.00,,,0.00,616.000000,,2013-04-27 18:02:00,
2013-04-27 12:22:00,60.0,11.0,-100.00,ESE,104,5.0,11.0,14,0.00,,,0.00,665.000000,,2013-04-27 18:22:00,
2013-04-27 12:32:00,60.0,11.0,-100.00,ESE,104,5.0,11.0,14,0.00,,,0.00,665.000000,,2013-04-27 18:32:00,
2013-04-27 12:42:00,60.0,11.0,-100.00,ESE,104,5.0,11.0,14,0.00,,,0.00,665.000000,,2013-04-27 18:42:00,
2013-04-27 12:52:00,60.0,11.0,-100.00,ESE,104,5.0,11.0,14,0.00,,,0.00,665.000000,,2013-04-27 18:52:00,
2013-04-27 13:02:00,60.0,11.0,-100.00,ESE,104,5.0,11.0,14,0.00,,,0.00,665.000000,,2013-04-27 19:02:00,
2013-04-27 13:22:00,57.0,20.0,-100.00,ESE,122,7.0,14.0,23,0.00,,,0.00,647.000000,,2013-04-27 19:22:00,
2013-04-27 13:32:00,57.0,20.0,-100.00,ESE,122,7.0,14.0,23,0.00,,,0.00,647.000000,,2013-04-27 19:32:00,
2013-04-27 13:42:00,57.0,20.0,-100.00,ESE,122,7.0,14.0,23,0.00,,,0.00,647.000000,,2013-04-27 19:42:00,
2013-04-27 13:53:00,57.0,20.0,-100.00,ESE,122,7.0,14.0,23,0.00,,,0.00,647.000000,,2013-04-27 19:53:00,
2013-04-27 14:02:00,57.0,20.0,-100.00,ESE,122,7.0,14.0,23,0.00,,,0.00,647.000000,,2013-04-27 20:02:00,
2013-04-27 14:32:00,58.0,11.0,-100.00,South,187,3.0,14.0,15,0.00,,,0.00,444.000000,,2013-04-27 20:32:00,
2013-04-27 14:42:00,58.0,11.0,-100.00,South,187,3.0,14.0,15,0.00,,,0.00,444.000000,,2013-04-27 20:42:00,
2013-04-27 14:52:00,58.0,11.0,-100.00,South,187,3.0,14.0,15,0.00,,,0.00,444.000000,,2013-04-27 20:52:00,
2013-04-27 15:02:00,58.0,11.0,-100.00,South,187,3.0,14.0,15,0.00,,,0.00,444.000000,,2013-04-27 21:02:00,
2013-04-27 15:22:00,62.0,3.0,-100.00,North,350,6.0,12.0,9,0.00,,,0.00,782.000000,,2013-04-27 21:22:00,
2013-04-27 15:33:00,62.0,3.0,-100.00,North,350,6.0,12.0,9,0.00,,,0.00,782.000000,,2013-04-27 21:33:00,
2013-04-27 15:43:00,62.0,3.0,-100.00,North,350,6.0,12.0,9,0.00,,,0.00,782.000000,,2013-04-27 21:43:00,
2013-04-27 15:53:00,62.0,3.0,-100.00,North,350,6.0,12.0,9,0.00,,,0.00,782.000000,,2013-04-27 21:53:00,
2013-04-27 16:02:00,62.0,3.0,-100.00,North,350,6.0,12.0,9,0.00,,,0.00,782.000000,,2013-04-27 22:02:00,
2013-04-27 16:32:00,63.0,6.0,-100.00,SW,214,7.0,17.0,10,0.00,,,0.00,838.000000,,2013-04-27 22:32:00,
2013-04-27 16:42:00,63.0,6.0,-100.00,SW,214,7.0,17.0,10,0.00,,,0.00,838.000000,,2013-04-27 22:42:00,
2013-04-27 16:52:00,63.0,6.0,-100.00,SW,214,7.0,17.0,10,0.00,,,0.00,838.000000,,2013-04-27 22:52:00,
2013-04-27 17:02:00,63.0,6.0,-100.00,SW,214,7.0,17.0,10,0.00,,,0.00,838.000000,,2013-04-27 23:02:00,
2013-04-27 17:22:00,63.0,10.0,-100.00,NW,308,5.0,12.0,12,0.00,,,0.00,527.000000,,2013-04-27 23:22:00,
2013-04-27 17:32:00,63.0,10.0,-100.00,NW,308,5.0,12.0,12,0.00,,,0.00,527.000000,,2013-04-27 23:32:00,
2013-04-27 17:42:00,63.0,10.0,-100.00,NW,308,5.0,12.0,12,0.00,,,0.00,527.000000,,2013-04-27 23:42:00,
2013-04-27 17:52:00,63.0,10.0,-100.00,NW,308,5.0,12.0,12,0.00,,,0.00,527.000000,,2013-04-27 23:52:00,
2013-04-27 18:01:00,63.0,10.0,-100.00,NW,308,5.0,12.0,12,0.00,,,0.00,527.000000,,2013-04-28 00:01:00,
2013-04-27 18:22:00,62.0,11.0,-100.00,SE,128,3.0,11.0,13,0.00,,,0.00,501.000000,,2013-04-28 00:22:00,
2013-04-27 18:32:00,62.0,11.0,-100.00,SE,128,3.0,11.0,13,0.00,,,0.00,501.000000,,2013-04-28 00:32:00,
2013-04-27 18:43:00,62.0,11.0,-100.00,SE,128,3.0,11.0,13,0.00,,,0.00,501.000000,,2013-04-28 00:43:00,
2013-04-27 18:52:00,62.0,11.0,-100.00,SE,128,3.0,11.0,13,0.00,,,0.00,501.000000,,2013-04-28 00:52:00,
2013-04-27 19:01:00,62.0,11.0,-100.00,SE,128,3.0,11.0,13,0.00,,,0.00,501.000000,,2013-04-28 01:01:00,
2013-04-27 19:22:00,53.0,13.0,-100.00,NW,320,2.0,9.0,20,0.00,,,0.00,131.000000,,2013-04-28 01:22:00,
2013-04-27 19:32:00,53.0,13.0,-100.00,NW,320,2.0,9.0,20,0.00,,,0.00,131.000000,,2013-04-28 01:32:00,
2013-04-27 19:42:00,53.0,13.0,-100.00,NW,320,2.0,9.0,20,0.00,,,0.00,131.000000,,2013-04-28 01:42:00,
2013-04-27 19:52:00,53.0,13.0,-100.00,NW,320,2.0,9.0,20,0.00,,,0.00,131.000000,,2013-04-28 01:52:00,
2013-04-27 20:02:00,53.0,13.0,-100.00,NW,320,2.0,9.0,20,0.00,,,0.00,131.000000,,2013-04-28 02:02:00,
2013-04-27 20:32:00,46.0,14.0,-100.00,North,351,2.0,5.0,27,0.00,,,0.00,19.000000,,2013-04-28 02:32:00,
2013-04-27 20:42:00,46.0,14.0,-100.00,North,351,2.0,5.0,27,0.00,,,0.00,19.000000,,2013-04-28 02:42:00,
2013-04-27 20:52:00,46.0,14.0,-100.00,North,351,2.0,5.0,27,0.00,,,0.00,19.000000,,2013-04-28 02:52:00,
2013-04-27 21:01:00,46.0,14.0,-100.00,North,351,2.0,5.0,27,0.00,,,0.00,19.000000,,2013-04-28 03:01:00,
2013-04-27 21:22:00,43.0,13.0,-100.00,North,353,2.0,4.0,29,0.00,,,0.00,0.000000,,2013-04-28 03:22:00,
2013-04-27 21:33:00,43.0,13.0,-100.00,North,353,2.0,4.0,29,0.00,,,0.00,0.000000,,2013-04-28 03:33:00,
2013-04-27 21:43:00,43.0,13.0,-100.00,North,353,2.0,4.0,29,0.00,,,0.00,0.000000,,2013-04-28 03:43:00,
2013-04-27 21:53:00,43.0,13.0,-100.00,North,353,2.0,4.0,29,0.00,,,0.00,0.000000,,2013-04-28 03:53:00,
2013-04-27 22:02:00,43.0,13.0,-100.00,North,353,2.0,4.0,29,0.00,,,0.00,0.000000,,2013-04-28 04:02:00,
2013-04-27 22:32:00,41.0,15.0,-100.00,NNW,328,2.0,4.0,34,0.00,,,0.00,0.000000,,2013-04-28 04:32:00,
2013-04-27 22:43:00,41.0,15.0,-100.00,NNW,328,2.0,4.0,34,0.00,,,0.00,0.000000,,2013-04-28 04:43:00,
2013-04-27 22:53:00,41.0,15.0,-100.00,NNW,328,2.0,4.0,34,0.00,,,0.00,0.000000,,2013-04-28 04:53:00,
2013-04-27 23:02:00,41.0,15.0,-100.00,NNW,328,2.0,4.0,34,0.00,,,0.00,0.000000,,2013-04-28 05:02:00,
2013-04-27 23:22:00,40.0,13.0,-100.00,NW,321,2.0,4.0,33,0.00,,,0.00,0.000000,,2013-04-28 05:22:00,
2013-04-27 23:32:00,40.0,13.0,-100.00,NW,321,2.0,4.0,33,0.00,,,0.00,0.000000,,2013-04-28 05:32:00,
2013-04-27 23:42:00,40.0,13.0,-100.00,NW,321,2.0,4.0,33,0.00,,,0.00,0.000000,,2013-04-28 05:42:00,
2013-04-27 23:52:00,40.0,13.0,-100.00,NW,321,2.0,4.0,33,0.00,,,0.00,0.000000,,2013-04-28 05:52:00,